createdAt,value
2018-12-16T00:01:36.993Z,96577.19
2018-12-16T00:04:05.338Z,96582.03
2018-12-16T00:06:33.778Z,96555.70
2018-12-16T00:09:05.378Z,96567.59
2018-12-16T00:11:33.908Z,96583.84
2018-12-16T00:14:02.474Z,96591.11
2018-12-16T00:16:30.865Z,96606.49
2018-12-16T00:18:59.305Z,96614.63
2018-12-16T00:21:27.805Z,96628.20
2018-12-16T00:23:56.911Z,96635.38
2018-12-16T00:26:34.133Z,96641.98
2018-12-16T00:29:02.889Z,96648.23
2018-12-16T00:31:31.466Z,96656.39
2018-12-16T00:33:59.936Z,96675.22
2018-12-16T00:36:28.441Z,96676.78
2018-12-16T00:38:56.773Z,96676.46
2018-12-16T00:41:25.373Z,96672.52
2018-12-16T00:43:53.865Z,96672.84
2018-12-16T00:46:22.619Z,96670.42
2018-12-16T00:48:51.333Z,96673.23
2018-12-16T00:51:19.821Z,96665.90
2018-12-16T00:53:48.317Z,96660.38
2018-12-16T00:56:17.301Z,96646.92
2018-12-16T00:58:45.645Z,96633.93
2018-12-16T01:01:13.966Z,96628.80
2018-12-16T01:03:42.425Z,96616.97
2018-12-16T01:06:10.733Z,96613.09
2018-12-16T01:08:39.193Z,96595.66
2018-12-16T01:11:07.500Z,96588.84
2018-12-16T01:13:35.945Z,96583.11
2018-12-16T01:16:05.171Z,96579.55
2018-12-16T01:18:33.501Z,96567.18
2018-12-16T01:21:01.822Z,96557.84
2018-12-16T01:23:30.162Z,96541.64
2018-12-16T01:25:58.479Z,96542.14
2018-12-16T01:28:26.798Z,96541.59
2018-12-16T01:30:55.516Z,96534.44
2018-12-16T01:33:24.029Z,96522.36
2018-12-16T01:35:52.994Z,96532.69
2018-12-16T01:38:22.013Z,96539.14
2018-12-16T01:40:50.318Z,96539.75
2018-12-16T01:43:18.658Z,96531.14
2018-12-16T01:45:46.948Z,96533.25
2018-12-16T01:48:15.294Z,96520.88
2018-12-16T01:50:43.602Z,96522.19
2018-12-16T01:53:12.372Z,96519.45
2018-12-16T01:55:40.850Z,96523.06
2018-12-16T01:58:10.377Z,96521.55
2018-12-16T02:00:38.830Z,96512.88
2018-12-16T02:03:07.194Z,96518.92
2018-12-16T02:05:35.797Z,96525.48
2018-12-16T02:08:04.269Z,96508.30
2018-12-16T02:10:32.794Z,96503.70
2018-12-16T02:13:01.141Z,96489.08
2018-12-16T02:15:29.969Z,96482.11
2018-12-16T02:17:58.309Z,96478.44
2018-12-16T02:20:26.748Z,96483.40
2018-12-16T02:22:56.912Z,96476.28
2018-12-16T02:25:25.745Z,96471.87
2018-12-16T02:27:54.182Z,96475.27
2018-12-16T02:30:28.609Z,96463.16
2018-12-16T02:32:57.101Z,96460.27
2018-12-16T02:35:25.786Z,96447.27
2018-12-16T02:37:54.225Z,96440.59
2018-12-16T02:40:22.758Z,96437.83
2018-12-16T02:42:51.219Z,96435.88
2018-12-16T02:45:19.859Z,96435.38
2018-12-16T02:47:49.233Z,96421.70
2018-12-16T02:50:17.640Z,96409.98
2018-12-16T02:52:45.938Z,96399.44
2018-12-16T02:55:14.278Z,96383.75
2018-12-16T02:57:42.591Z,96382.50
2018-12-16T03:00:11.759Z,96382.18
2018-12-16T03:02:40.095Z,96380.05
2018-12-16T03:05:08.421Z,96368.31
2018-12-16T03:07:37.059Z,96370.88
2018-12-16T03:10:05.917Z,96361.26
2018-12-16T03:12:34.529Z,96365.86
2018-12-16T03:15:03.062Z,96364.05
2018-12-16T03:17:31.356Z,96362.92
2018-12-16T03:20:00.072Z,96357.44
2018-12-16T03:22:28.438Z,96347.15
2018-12-16T03:24:56.957Z,96346.19
2018-12-16T03:27:25.661Z,96346.25
2018-12-16T03:29:54.418Z,96336.11
2018-12-16T03:32:22.922Z,96335.85
2018-12-16T03:34:51.233Z,96334.25
2018-12-16T03:37:19.886Z,96337.48
2018-12-16T03:39:49.356Z,96335.85
2018-12-16T03:42:17.881Z,96328.75
2018-12-16T03:44:46.209Z,96315.66
2018-12-16T03:47:14.832Z,96299.78
2018-12-16T03:49:43.153Z,96301.47
2018-12-16T03:52:11.794Z,96290.66
2018-12-16T03:54:40.286Z,96291.59
2018-12-16T03:57:08.623Z,96269.30
2018-12-16T03:59:36.950Z,96272.42
2018-12-16T04:02:05.743Z,96259.44
2018-12-16T04:04:34.197Z,96269.11
2018-12-16T04:07:02.697Z,96268.22
2018-12-16T04:09:31.660Z,96271.80
2018-12-16T04:12:00.004Z,96269.78
2018-12-16T04:14:28.319Z,96272.63
2018-12-16T04:16:56.641Z,96264.80
2018-12-16T04:19:24.946Z,96257.25
2018-12-16T04:21:53.267Z,96267.73
2018-12-16T04:24:21.997Z,96256.93
2018-12-16T04:26:50.338Z,96258.69
2018-12-16T04:29:18.653Z,96259.94
2018-12-16T04:31:47.006Z,96242.57
2018-12-16T04:34:16.457Z,96248.88
2018-12-16T04:36:45.498Z,96251.92
2018-12-16T04:39:13.833Z,96252.06
2018-12-16T04:41:42.456Z,96262.49
2018-12-16T04:44:10.933Z,96268.79
2018-12-16T04:46:39.259Z,96263.55
2018-12-16T04:49:07.881Z,96273.19
2018-12-16T04:51:36.387Z,96268.80
2018-12-16T04:54:04.738Z,96273.13
2018-12-16T04:56:33.343Z,96278.38
2018-12-16T04:59:02.074Z,96284.23
2018-12-16T05:01:30.493Z,96285.27
2018-12-16T05:03:59.337Z,96284.73
2018-12-16T05:06:27.770Z,96279.36
2018-12-16T05:08:56.281Z,96279.31
2018-12-16T05:11:24.581Z,96286.03
2018-12-16T05:13:53.216Z,96292.09
2018-12-16T05:16:21.542Z,96297.67
2018-12-16T05:18:50.196Z,96296.75
2018-12-16T05:21:18.667Z,96293.98
2018-12-16T05:23:47.149Z,96292.81
2018-12-16T05:26:15.609Z,96292.92
2018-12-16T05:28:44.125Z,96297.86
2018-12-16T05:31:12.461Z,96296.94
2018-12-16T05:33:41.092Z,96292.92
2018-12-16T05:36:09.547Z,96286.94
2018-12-16T05:38:38.556Z,96294.99
2018-12-16T05:41:07.011Z,96296.44
2018-12-16T05:43:35.521Z,96294.99
2018-12-16T05:46:03.996Z,96283.57
2018-12-16T05:48:32.485Z,96271.38
2018-12-16T05:51:00.817Z,96269.14
2018-12-16T05:53:29.450Z,96278.08
2018-12-16T05:55:57.794Z,96277.02
2018-12-16T05:58:26.136Z,96272.58
2018-12-16T06:00:54.441Z,96270.84
2018-12-16T06:03:22.777Z,96277.27
2018-12-16T06:05:51.325Z,96281.05
2018-12-16T06:08:20.021Z,96287.37
2018-12-16T06:10:48.801Z,96260.88
2018-12-16T06:13:17.300Z,96267.27
2018-12-16T06:15:45.612Z,96275.94
2018-12-16T06:18:14.274Z,96272.51
2018-12-16T06:20:42.689Z,96280.56
2018-12-16T06:23:11.231Z,96275.13
2018-12-16T06:25:39.541Z,96281.87
2018-12-16T06:28:08.170Z,96277.08
2018-12-16T06:30:38.352Z,96276.88
2018-12-16T06:33:07.210Z,96288.33
2018-12-16T06:35:35.668Z,96286.38
2018-12-16T06:38:04.145Z,96289.63
2018-12-16T06:40:32.715Z,96283.39
2018-12-16T06:43:01.109Z,96279.06
2018-12-16T06:45:29.457Z,96281.27
2018-12-16T06:47:57.779Z,96277.76
2018-12-16T06:50:26.218Z,96273.75
2018-12-16T06:52:54.534Z,96276.58
2018-12-16T06:55:22.862Z,96276.58
2018-12-16T06:57:51.480Z,96278.89
2018-12-16T07:00:19.997Z,96283.33
2018-12-16T07:02:52.605Z,96280.81
2018-12-16T07:05:21.171Z,96279.00
2018-12-16T07:07:50.025Z,96283.32
2018-12-16T07:10:19.121Z,96281.34
2018-12-16T07:12:47.458Z,96274.81
2018-12-16T07:15:15.786Z,96274.07
2018-12-16T07:17:44.122Z,96282.58
2018-12-16T07:20:12.433Z,96286.12
2018-12-16T07:22:40.833Z,96294.70
2018-12-16T07:25:09.301Z,96282.51
2018-12-16T07:27:37.608Z,96282.58
2018-12-16T07:30:07.133Z,96279.89
2018-12-16T07:32:35.463Z,96286.44
2018-12-16T07:35:03.940Z,96280.55
2018-12-16T07:37:32.332Z,96284.61
2018-12-16T07:40:00.837Z,96287.52
2018-12-16T07:42:29.162Z,96297.66
2018-12-16T07:44:57.789Z,96293.66
2018-12-16T07:47:26.261Z,96303.80
2018-12-16T07:49:54.599Z,96303.88
2018-12-16T07:52:23.242Z,96300.03
2018-12-16T07:54:52.229Z,96308.27
2018-12-16T07:57:20.528Z,96309.64
2018-12-16T07:59:48.878Z,96311.95
2018-12-16T08:02:17.257Z,96315.45
2018-12-16T08:04:45.560Z,96310.70
2018-12-16T08:07:14.494Z,96320.22
2018-12-16T08:09:43.085Z,96319.31
2018-12-16T08:12:11.598Z,96322.72
2018-12-16T08:14:39.917Z,96319.20
2018-12-16T08:17:08.561Z,96323.16
2018-12-16T08:19:37.685Z,96317.20
2018-12-16T08:22:06.046Z,96323.06
2018-12-16T08:24:34.492Z,96326.87
2018-12-16T08:27:03.010Z,96315.38
2018-12-16T08:29:32.073Z,96321.77
2018-12-16T08:32:00.481Z,96328.30
2018-12-16T08:34:29.453Z,96323.80
2018-12-16T08:36:58.465Z,96332.69
2018-12-16T08:39:26.923Z,96337.70
2018-12-16T08:41:55.429Z,96343.66
2018-12-16T08:44:23.873Z,96343.37
2018-12-16T08:46:52.383Z,96346.07
2018-12-16T08:49:20.844Z,96342.61
2018-12-16T08:51:49.370Z,96340.66
2018-12-16T08:54:17.817Z,96340.99
2018-12-16T08:56:46.284Z,96347.70
2018-12-16T08:59:14.919Z,96350.58
2018-12-16T09:01:43.287Z,96345.89
2018-12-16T09:04:12.340Z,96358.36
2018-12-16T09:06:40.710Z,96356.44
2018-12-16T09:09:09.998Z,96354.14
2018-12-16T09:11:38.323Z,96348.13
2018-12-16T09:14:06.633Z,96350.73
2018-12-16T09:16:35.193Z,96351.92
2018-12-16T09:19:03.785Z,96355.25
2018-12-16T09:21:32.162Z,96356.31
2018-12-16T09:24:00.632Z,96358.92
2018-12-16T09:26:29.261Z,96353.83
2018-12-16T09:28:58.626Z,96360.48
2018-12-16T09:31:26.961Z,96358.69
2018-12-16T09:33:55.278Z,96359.19
2018-12-16T09:36:23.596Z,96360.72
2018-12-16T09:38:52.621Z,96358.73
2018-12-16T09:41:20.925Z,96360.98
2018-12-16T09:43:49.277Z,96352.77
2018-12-16T09:46:17.663Z,96353.66
2018-12-16T09:48:46.023Z,96351.46
2018-12-16T09:51:14.313Z,96357.48
2018-12-16T09:53:42.662Z,96353.49
2018-12-16T09:56:10.946Z,96359.18
2018-12-16T09:58:39.910Z,96349.66
2018-12-16T10:01:08.461Z,96360.00
2018-12-16T10:03:36.809Z,96351.46
2018-12-16T10:06:05.143Z,96358.49
2018-12-16T10:08:37.998Z,96360.09
2018-12-16T10:11:06.450Z,96363.86
2018-12-16T10:13:35.031Z,96372.53
2018-12-16T10:16:03.362Z,96364.95
2018-12-16T10:18:31.821Z,96364.93
2018-12-16T10:21:00.126Z,96369.75
2018-12-16T10:23:28.437Z,96358.15
2018-12-16T10:25:56.782Z,96352.87
2018-12-16T10:28:25.093Z,96355.38
2018-12-16T10:30:53.415Z,96353.23
2018-12-16T10:33:22.513Z,96361.20
2018-12-16T10:35:51.193Z,96366.99
2018-12-16T10:38:19.715Z,96366.68
2018-12-16T10:40:48.060Z,96364.05
2018-12-16T10:43:16.349Z,96366.09
2018-12-16T10:45:45.147Z,96358.77
2018-12-16T10:48:14.127Z,96357.98
2018-12-16T10:50:42.445Z,96360.19
2018-12-16T10:53:10.770Z,96351.27
2018-12-16T10:55:39.114Z,96348.84
2018-12-16T10:58:08.221Z,96351.66
2018-12-16T11:00:41.972Z,96356.65
2018-12-16T11:03:12.317Z,96348.58
2018-12-16T11:05:41.137Z,96355.95
2018-12-16T11:08:09.469Z,96352.69
2018-12-16T11:10:39.209Z,96348.31
2018-12-16T11:13:08.733Z,96345.59
2018-12-16T11:15:37.189Z,96355.34
2018-12-16T11:18:05.509Z,96354.23
2018-12-16T11:20:34.128Z,96352.58
2018-12-16T11:23:02.561Z,96360.09
2018-12-16T11:25:31.619Z,96358.66
2018-12-16T11:27:59.925Z,96353.52
2018-12-16T11:30:28.279Z,96354.61
2018-12-16T11:32:56.589Z,96353.22
2018-12-16T11:35:24.921Z,96358.75
2018-12-16T11:37:54.117Z,96364.22
2018-12-16T11:40:22.565Z,96369.12
2018-12-16T11:42:50.880Z,96362.14
2018-12-16T11:45:19.450Z,96352.69
2018-12-16T11:47:48.081Z,96341.86
2018-12-16T11:50:16.414Z,96343.19
2018-12-16T11:52:44.921Z,96328.17
2018-12-16T11:55:13.506Z,96329.16
2018-12-16T11:57:41.838Z,96316.34
2018-12-16T12:00:11.357Z,96323.07
2018-12-16T12:02:39.665Z,96317.92
2018-12-16T12:05:07.981Z,96318.20
2018-12-16T12:07:36.333Z,96312.48
2018-12-16T12:10:05.933Z,96316.83
2018-12-16T12:12:34.266Z,96306.80
2018-12-16T12:15:02.570Z,96311.19
2018-12-16T12:17:31.263Z,96309.40
2018-12-16T12:19:59.734Z,96308.09
2018-12-16T12:22:28.233Z,96304.34
2018-12-16T12:24:56.685Z,96299.39
2018-12-16T12:27:25.830Z,96293.62
2018-12-16T12:29:54.441Z,96295.30
2018-12-16T12:32:22.782Z,96282.15
2018-12-16T12:34:51.645Z,96280.27
2018-12-16T12:37:19.982Z,96289.63
2018-12-16T12:39:49.129Z,96292.53
2018-12-16T12:42:17.617Z,96297.28
2018-12-16T12:44:45.938Z,96295.45
2018-12-16T12:47:14.245Z,96307.55
2018-12-16T12:49:45.150Z,96302.84
2018-12-16T12:52:13.072Z,96312.17
2018-12-16T12:54:42.141Z,96309.88
2018-12-16T12:57:10.438Z,96309.56
2018-12-16T12:59:38.918Z,96319.95
2018-12-16T13:02:07.626Z,96315.38
2018-12-16T13:04:35.999Z,96314.47
2018-12-16T13:07:04.991Z,96311.30
2018-12-16T13:09:33.605Z,96316.52
2018-12-16T13:12:01.954Z,96315.43
2018-12-16T13:14:30.233Z,96319.87
2018-12-16T13:16:58.913Z,96318.98
2018-12-16T13:19:27.349Z,96314.09
2018-12-16T13:21:56.586Z,96319.81
2018-12-16T13:24:25.005Z,96317.68
2018-12-16T13:26:53.816Z,96319.71
2018-12-16T13:29:22.118Z,96326.82
2018-12-16T13:31:50.402Z,96335.74
2018-12-16T13:34:18.689Z,96333.16
2018-12-16T13:36:47.899Z,96341.50
2018-12-16T13:39:16.845Z,96347.40
2018-12-16T13:41:45.133Z,96346.89
2018-12-16T13:44:13.424Z,96351.99
2018-12-16T13:46:41.681Z,96354.81
2018-12-16T13:49:10.218Z,96349.20
2018-12-16T13:51:38.706Z,96345.15
2018-12-16T13:54:06.989Z,96350.49
2018-12-16T13:56:35.265Z,96349.05
2018-12-16T13:59:03.881Z,96355.30
2018-12-16T14:01:32.590Z,96359.57
2018-12-16T14:04:01.414Z,96354.28
2018-12-16T14:06:29.686Z,96357.64
2018-12-16T14:08:58.055Z,96359.84
2018-12-16T14:11:26.573Z,96368.08
2018-12-16T14:14:16.700Z,96370.41
2018-12-16T14:19:49.349Z,96369.55
2018-12-16T14:22:17.802Z,96374.65
2018-12-16T14:24:46.305Z,96367.81
2018-12-16T14:27:15.383Z,96368.91
2018-12-16T14:29:44.837Z,96375.69
2018-12-16T14:32:13.453Z,96374.93
2018-12-16T14:34:42.023Z,96378.80
2018-12-16T14:37:10.325Z,96385.40
2018-12-16T14:39:38.597Z,96371.55
2018-12-16T14:42:07.150Z,96366.64
2018-12-16T14:44:35.681Z,96365.92
2018-12-16T14:47:03.983Z,96370.88
2018-12-16T14:49:32.745Z,96368.23
2018-12-16T14:52:15.965Z,96360.50
2018-12-16T14:54:44.234Z,96355.65
2018-12-16T14:57:12.526Z,96364.85
2018-12-16T14:59:41.405Z,96377.83
2018-12-16T15:02:09.911Z,96373.48
2018-12-16T15:04:38.197Z,96366.77
2018-12-16T15:07:07.011Z,96369.03
2018-12-16T15:09:35.342Z,96370.35
2018-12-16T15:12:03.855Z,96375.20
2018-12-16T15:14:32.825Z,96384.12
2018-12-16T15:17:01.122Z,96392.98
2018-12-16T15:19:29.382Z,96395.68
2018-12-16T15:21:57.694Z,96399.77
2018-12-16T15:24:25.961Z,96403.91
2018-12-16T15:26:54.306Z,96401.83
2018-12-16T15:29:22.585Z,96400.72
2018-12-16T15:31:50.883Z,96412.77
2018-12-16T15:34:19.154Z,96406.62
2018-12-16T15:36:47.582Z,96410.45
2018-12-16T15:39:15.981Z,96419.39
2018-12-16T15:41:44.265Z,96415.94
2018-12-16T15:44:12.554Z,96422.54
2018-12-16T15:46:41.270Z,96431.27
2018-12-16T15:49:10.680Z,96436.55
2018-12-16T15:51:39.124Z,96432.80
2018-12-16T15:54:08.434Z,96435.23
2018-12-16T15:56:36.745Z,96430.95
2018-12-16T15:59:05.243Z,96438.89
2018-12-16T16:01:33.566Z,96437.36
2018-12-16T16:04:01.947Z,96437.66
2018-12-16T16:06:30.453Z,96431.27
2018-12-16T16:08:58.761Z,96432.08
2018-12-16T16:11:27.169Z,96433.09
2018-12-16T16:13:55.449Z,96435.73
2018-12-16T16:16:24.021Z,96436.03
2018-12-16T16:18:52.274Z,96442.21
2018-12-16T16:21:20.825Z,96441.75
2018-12-16T16:23:49.294Z,96436.73
2018-12-16T16:26:17.758Z,96429.63
2018-12-16T16:28:47.315Z,96439.75
2018-12-16T16:31:15.594Z,96446.36
2018-12-16T16:33:44.329Z,96447.79
2018-12-16T16:36:12.721Z,96437.41
2018-12-16T16:38:41.497Z,96444.39
2018-12-16T16:41:10.222Z,96448.77
2018-12-16T16:43:39.210Z,96446.73
2018-12-16T16:46:07.682Z,96449.67
2018-12-16T16:48:36.165Z,96452.12
2018-12-16T16:51:04.557Z,96450.04
2018-12-16T16:53:33.140Z,96459.41
2018-12-16T16:56:01.417Z,96461.62
2018-12-16T16:58:30.105Z,96460.61
2018-12-16T17:00:58.438Z,96456.25
2018-12-16T17:03:27.176Z,96458.15
2018-12-16T17:05:55.469Z,96462.55
2018-12-16T17:08:24.044Z,96465.27
2018-12-16T17:10:52.514Z,96471.36
2018-12-16T17:13:20.829Z,96463.74
2018-12-16T17:15:49.089Z,96465.06
2018-12-16T17:18:17.509Z,96464.68
2018-12-16T17:20:45.926Z,96465.37
2018-12-16T17:23:14.567Z,96464.05
2018-12-16T17:25:48.276Z,96465.50
2018-12-16T17:28:13.157Z,96471.67
2018-12-16T17:30:41.553Z,96473.88
2018-12-16T17:33:09.891Z,96478.70
2018-12-16T17:35:38.321Z,96480.61
2018-12-16T17:38:06.618Z,96478.09
2018-12-16T17:40:35.153Z,96480.13
2018-12-16T17:43:03.809Z,96482.86
2018-12-16T17:45:32.101Z,96461.62
2018-12-16T17:48:00.392Z,96478.70
2018-12-16T17:50:28.687Z,96474.44
2018-12-16T17:52:57.188Z,96472.16
2018-12-16T17:55:25.497Z,96474.37
2018-12-16T17:57:53.762Z,96478.58
2018-12-16T18:00:22.769Z,96479.70
2018-12-16T18:02:51.037Z,96476.25
2018-12-16T18:05:19.346Z,96475.00
2018-12-16T18:07:47.630Z,96484.45
2018-12-16T18:10:15.925Z,96489.03
2018-12-16T18:12:44.530Z,96490.33
2018-12-16T18:15:13.041Z,96487.81
2018-12-16T18:17:41.498Z,96488.22
2018-12-16T18:20:10.278Z,96488.02
2018-12-16T18:22:38.581Z,96492.28
2018-12-16T18:25:07.076Z,96498.12
2018-12-16T18:27:35.427Z,96499.97
2018-12-16T18:30:06.085Z,96497.83
2018-12-16T18:32:34.394Z,96495.87
2018-12-16T18:35:02.701Z,96500.02
2018-12-16T18:37:31.113Z,96497.28
2018-12-16T18:39:59.478Z,96501.12
2018-12-16T18:42:27.757Z,96497.77
2018-12-16T18:44:56.337Z,96498.47
2018-12-16T18:47:24.845Z,96499.47
2018-12-16T18:49:53.337Z,96501.27
2018-12-16T18:52:21.786Z,96504.63
2018-12-16T18:54:50.073Z,96501.59
2018-12-16T18:57:18.361Z,96501.65
2018-12-16T18:59:46.658Z,96502.44
2018-12-16T19:02:14.969Z,96509.42
2018-12-16T19:04:43.249Z,96507.46
2018-12-16T19:07:11.675Z,96517.84
2018-12-16T19:13:10.698Z,96514.11
2018-12-16T19:15:39.120Z,96524.12
2018-12-16T19:18:07.391Z,96523.03
2018-12-16T19:20:35.656Z,96517.98
2018-12-16T19:23:03.965Z,96516.66
2018-12-16T19:25:32.478Z,96520.45
2018-12-16T19:28:00.777Z,96523.14
2018-12-16T19:30:29.061Z,96519.00
2018-12-16T19:32:57.632Z,96521.38
2018-12-16T19:35:26.049Z,96510.86
2018-12-16T19:37:54.519Z,96520.39
2018-12-16T19:40:22.923Z,96530.64
2018-12-16T19:42:51.850Z,96524.90
2018-12-16T19:45:20.584Z,96525.92
2018-12-16T19:47:50.366Z,96527.23
2018-12-16T19:50:20.363Z,96533.05
2018-12-16T19:52:48.695Z,96531.85
2018-12-16T19:55:17.573Z,96536.84
2018-12-16T19:57:45.910Z,96539.35
2018-12-16T20:00:15.546Z,96544.27
2018-12-16T20:02:44.288Z,96545.18
2018-12-16T20:05:17.822Z,96545.52
2018-12-16T20:07:47.078Z,96547.95
2018-12-16T20:10:15.585Z,96549.61
2018-12-16T20:12:44.117Z,96554.06
2018-12-16T20:15:13.902Z,96558.54
2018-12-16T20:17:42.185Z,96559.05
2018-12-16T20:20:10.566Z,96558.52
2018-12-16T20:22:38.849Z,96556.27
2018-12-16T20:25:07.497Z,96563.80
2018-12-16T20:27:35.881Z,96558.08
2018-12-16T20:30:05.402Z,96560.14
2018-12-16T20:32:34.019Z,96565.00
2018-12-16T20:35:02.558Z,96563.27
2018-12-16T20:37:30.833Z,96565.70
2018-12-16T20:39:59.101Z,96571.99
2018-12-16T20:42:27.394Z,96573.72
2018-12-16T20:44:55.668Z,96581.86
2018-12-16T20:47:23.961Z,96577.69
2018-12-16T20:49:52.222Z,96580.23
2018-12-16T20:52:20.526Z,96579.59
2018-12-16T20:54:49.585Z,96576.25
2018-12-16T20:57:19.058Z,96577.37
2018-12-16T20:59:48.555Z,96578.45
2018-12-16T21:02:18.209Z,96570.92
2018-12-16T21:04:47.058Z,96574.04
2018-12-16T21:07:16.151Z,96577.84
2018-12-16T21:09:45.382Z,96578.02
2018-12-16T21:12:20.010Z,96578.28
2018-12-16T21:14:53.594Z,96577.57
2018-12-16T21:17:27.837Z,96581.23
2018-12-16T21:19:56.639Z,96579.37
2018-12-16T21:22:25.552Z,96579.97
2018-12-16T21:24:55.558Z,96581.30
2018-12-16T21:27:26.362Z,96582.22
2018-12-16T21:29:55.777Z,96580.39
2018-12-16T21:32:26.544Z,96584.05
2018-12-16T21:34:56.978Z,96577.67
2018-12-16T21:37:27.195Z,96582.42
2018-12-16T21:39:59.289Z,96577.73
2018-12-16T21:42:30.285Z,96571.83
2018-12-16T21:44:59.975Z,96573.70
2018-12-16T21:47:31.768Z,96561.69
2018-12-16T21:50:03.009Z,96570.07
2018-12-16T21:52:34.022Z,96577.44
2018-12-16T21:55:02.375Z,96573.73
2018-12-16T21:57:33.226Z,96575.27
2018-12-16T22:00:00.945Z,96577.20
2018-12-16T22:02:30.666Z,96580.25
2018-12-16T22:05:00.070Z,96585.48
2018-12-16T22:07:29.767Z,96593.28
2018-12-16T22:09:59.212Z,96591.35
2018-12-16T22:12:27.712Z,96593.28
2018-12-16T22:14:57.056Z,96600.96
2018-12-16T22:17:27.158Z,96600.76
2018-12-16T22:19:56.871Z,96601.57
2018-12-16T22:22:26.314Z,96594.34
2018-12-16T22:25:00.926Z,96609.95
2018-12-16T22:27:30.429Z,96617.80
2018-12-16T22:30:01.058Z,96616.41
2018-12-16T22:32:30.472Z,96613.45
2018-12-16T22:35:01.375Z,96613.62
2018-12-16T22:37:29.989Z,96616.95
2018-12-16T22:40:00.845Z,96614.73
2018-12-16T22:42:31.986Z,96621.14
2018-12-16T22:45:01.400Z,96619.04
2018-12-16T22:47:33.826Z,96623.46
2018-12-16T22:50:05.293Z,96631.80
2018-12-16T22:52:34.743Z,96626.02
2018-12-16T22:55:06.251Z,96623.31
2018-12-16T22:57:34.837Z,96626.78
2018-12-16T23:00:05.348Z,96630.31
2018-12-16T23:02:34.626Z,96622.66
2018-12-16T23:05:04.451Z,96625.92
2018-12-16T23:07:34.783Z,96619.19
2018-12-16T23:10:04.587Z,96625.17
2018-12-16T23:12:34.317Z,96619.44
2018-12-16T23:15:02.993Z,96622.70
2018-12-16T23:17:31.281Z,96619.34
2018-12-16T23:20:05.225Z,96622.06
2018-12-16T23:22:33.894Z,96623.87
2018-12-16T23:25:02.437Z,96620.34
2018-12-16T23:27:30.925Z,96618.09
2018-12-16T23:29:59.398Z,96620.26
2018-12-16T23:32:27.908Z,96615.70
2018-12-16T23:34:56.174Z,96613.08
2018-12-16T23:37:24.478Z,96609.92
2018-12-16T23:39:52.754Z,96606.97
2018-12-16T23:42:21.037Z,96612.75
2018-12-16T23:44:49.353Z,96612.12
2018-12-16T23:47:17.777Z,96613.91
2018-12-16T23:49:46.217Z,96611.13
2018-12-16T23:52:14.729Z,96608.30
2018-12-16T23:54:44.470Z,96610.99
2018-12-16T23:57:13.177Z,96605.37
2018-12-16T23:59:41.442Z,96602.62
